Ford, Kentucky
Current Conditions -  °F | °C
As of 6:55 PM on Monday 22 Dec 2014 (Local Time) from KI39 Reporting Station
Overcast Overcast  
Wind Chill: 55°   Ceiling: 7000
Heat Index: 55°   Visibility: 10mi
Dew Point: 43°   Wind: 12mph
Humidity: 63%   Direction: 150°SSE
Pressure: 29.79"   Gusts: NA
Location:  37.88°N, 84.26°W
Report Text: KI39 222355Z AUTO 15010KT 10SM BKN070 OVC080 13/06 A2979 RMK AO2
Loading
Personal Weather Stations






























Interactive Weather Map New forecast layout! Learn more

10-Day Weather Forecast

Advertisements
Track Severe Weather on mobile